createdAt,value
2018-12-24T00:00:28.869Z,14.60
2018-12-24T00:03:00.512Z,14.70
2018-12-24T00:05:32.135Z,14.80
2018-12-24T00:08:10.946Z,14.80
2018-12-24T00:10:42.051Z,14.60
2018-12-24T00:13:21.143Z,14.50
2018-12-24T00:15:52.569Z,14.50
2018-12-24T00:18:23.744Z,14.60
2018-12-24T00:21:02.204Z,14.60
2018-12-24T00:23:33.837Z,14.50
2018-12-24T00:26:06.630Z,14.60
2018-12-24T00:28:38.133Z,13.70
2018-12-24T00:31:09.784Z,14.60
2018-12-24T00:33:41.511Z,14.50
2018-12-24T00:36:12.965Z,14.50
2018-12-24T00:38:44.506Z,14.40
2018-12-24T00:41:15.710Z,14.40
2018-12-24T00:43:47.202Z,14.40
2018-12-24T00:46:19.349Z,14.30
2018-12-24T00:48:50.921Z,14.30
2018-12-24T00:51:21.987Z,14.30
2018-12-24T00:53:53.461Z,14.30
2018-12-24T00:56:24.630Z,14.30
2018-12-24T00:59:00.817Z,14.50
2018-12-24T01:01:34.420Z,14.40
2018-12-24T01:04:07.293Z,14.40
2018-12-24T01:06:38.713Z,14.30
2018-12-24T01:09:10.144Z,14.20
2018-12-24T01:11:41.822Z,14.30
2018-12-24T01:14:13.381Z,14.40
2018-12-24T01:16:44.931Z,14.40
2018-12-24T01:19:16.585Z,15.50
2018-12-24T01:21:49.411Z,14.50
2018-12-24T01:24:26.549Z,14.60
2018-12-24T01:27:07.645Z,14.50
2018-12-24T01:29:39.234Z,14.50
2018-12-24T01:32:13.306Z,14.30
2018-12-24T01:34:44.798Z,14.20
2018-12-24T01:37:16.310Z,14.10
2018-12-24T01:39:48.017Z,14.10
2018-12-24T01:42:19.182Z,14.10
2018-12-24T01:44:50.665Z,14.00
2018-12-24T01:47:22.279Z,14.20
2018-12-24T01:49:53.670Z,14.20
2018-12-24T01:52:24.821Z,14.20
2018-12-24T01:54:56.396Z,14.30
2018-12-24T01:57:27.981Z,14.20
2018-12-24T01:59:59.417Z,14.20
2018-12-24T02:02:30.954Z,14.10
2018-12-24T02:05:02.721Z,14.20
2018-12-24T02:07:34.499Z,14.30
2018-12-24T02:10:15.119Z,14.40
2018-12-24T02:12:46.765Z,14.40
2018-12-24T02:15:17.968Z,14.40
2018-12-24T02:17:49.404Z,14.40
2018-12-24T02:20:21.003Z,14.30
2018-12-24T02:22:52.642Z,14.20
2018-12-24T02:25:23.739Z,14.10
2018-12-24T02:27:56.584Z,14.00
2018-12-24T02:30:28.084Z,14.00
2018-12-24T02:32:59.585Z,14.00
2018-12-24T02:35:31.206Z,14.00
2018-12-24T02:38:03.271Z,14.10
2018-12-24T02:40:41.011Z,14.10
2018-12-24T02:43:12.521Z,14.10
2018-12-24T02:45:44.315Z,14.10
2018-12-24T02:48:15.553Z,14.10
2018-12-24T02:50:46.927Z,14.10
2018-12-24T02:53:17.981Z,14.10
2018-12-24T02:55:49.594Z,14.10
2018-12-24T02:58:20.841Z,14.10
2018-12-24T03:00:52.197Z,14.10
2018-12-24T03:03:23.804Z,14.10
2018-12-24T03:06:01.133Z,14.10
2018-12-24T03:08:33.684Z,14.20
2018-12-24T03:11:05.068Z,14.10
2018-12-24T03:13:41.095Z,14.10
2018-12-24T03:16:12.360Z,14.10
2018-12-24T03:18:43.862Z,14.10
2018-12-24T03:21:15.100Z,14.10
2018-12-24T03:23:48.357Z,14.10
2018-12-24T03:26:19.563Z,14.20
2018-12-24T03:29:33.251Z,14.10
2018-12-24T03:32:04.204Z,14.10
2018-12-24T03:34:35.381Z,14.10
2018-12-24T03:37:06.526Z,14.10
2018-12-24T03:39:37.771Z,14.00
2018-12-24T03:42:09.062Z,14.00
2018-12-24T03:44:40.077Z,14.10
2018-12-24T03:47:11.008Z,14.20
2018-12-24T03:49:42.100Z,14.20
2018-12-24T03:52:12.988Z,14.20
2018-12-24T03:54:52.926Z,14.20
2018-12-24T03:57:24.092Z,14.00
2018-12-24T03:59:56.782Z,14.00
2018-12-24T04:02:27.618Z,14.00
2018-12-24T04:05:01.424Z,14.00
2018-12-24T04:07:32.563Z,14.00
2018-12-24T04:10:03.488Z,14.00
2018-12-24T04:12:34.338Z,14.10
2018-12-24T04:15:05.951Z,14.00
2018-12-24T04:17:39.816Z,13.90
2018-12-24T04:20:11.018Z,14.00
2018-12-24T04:22:42.158Z,13.90
2018-12-24T04:25:13.432Z,13.90
2018-12-24T04:27:44.362Z,14.00
2018-12-24T04:30:15.153Z,14.00
2018-12-24T04:32:46.350Z,14.00
2018-12-24T04:35:17.044Z,14.10
2018-12-24T04:37:48.242Z,14.00
2018-12-24T04:40:19.344Z,14.10
2018-12-24T04:42:50.923Z,13.90
2018-12-24T04:45:21.863Z,13.90
2018-12-24T04:47:52.923Z,13.80
2018-12-24T04:50:23.610Z,13.80
2018-12-24T04:53:04.094Z,13.20
2018-12-24T04:55:34.995Z,14.00
2018-12-24T04:58:06.077Z,14.00
2018-12-24T05:00:40.207Z,14.00
2018-12-24T05:03:11.375Z,14.10
2018-12-24T05:05:42.362Z,14.00
2018-12-24T05:08:13.214Z,14.00
2018-12-24T05:10:45.011Z,14.00
2018-12-24T05:13:15.851Z,13.90
2018-12-24T05:15:51.962Z,13.90
2018-12-24T05:18:40.497Z,13.90
2018-12-24T05:21:11.638Z,13.90
2018-12-24T05:23:42.660Z,13.90
2018-12-24T05:26:14.450Z,13.90
2018-12-24T05:28:45.458Z,14.00
2018-12-24T05:31:16.122Z,14.00
2018-12-24T05:33:47.117Z,14.00
2018-12-24T05:36:17.783Z,14.00
2018-12-24T05:38:50.138Z,14.00
2018-12-24T05:41:21.383Z,14.00
2018-12-24T05:43:52.412Z,14.10
2018-12-24T05:46:23.295Z,14.00
2018-12-24T05:48:54.410Z,14.10
2018-12-24T05:51:25.394Z,14.10
2018-12-24T05:53:56.411Z,14.00
2018-12-24T05:56:27.722Z,14.10
2018-12-24T05:58:59.095Z,14.00
2018-12-24T06:01:32.351Z,14.00
2018-12-24T06:04:03.336Z,13.90
2018-12-24T06:06:34.269Z,13.90
2018-12-24T06:09:06.865Z,13.80
2018-12-24T06:11:38.049Z,13.80
2018-12-24T06:14:09.050Z,13.80
2018-12-24T06:16:40.181Z,13.80
2018-12-24T06:19:12.416Z,13.70
2018-12-24T06:21:50.175Z,13.80
2018-12-24T06:24:20.843Z,13.80
2018-12-24T06:26:51.868Z,13.90
2018-12-24T06:29:22.638Z,13.90
2018-12-24T06:31:53.688Z,13.90
2018-12-24T06:34:24.371Z,13.90
2018-12-24T06:36:55.437Z,13.70
2018-12-24T06:39:26.430Z,13.70
2018-12-24T06:41:57.478Z,13.60
2018-12-24T06:44:31.982Z,13.70
2018-12-24T06:47:02.937Z,13.80
2018-12-24T06:49:34.091Z,13.70
2018-12-24T06:52:05.193Z,13.80
2018-12-24T06:54:36.365Z,13.70
2018-12-24T06:57:07.827Z,13.80
2018-12-24T06:59:38.829Z,13.80
2018-12-24T07:02:13.707Z,13.80
2018-12-24T07:04:51.133Z,13.80
2018-12-24T07:07:21.974Z,13.80
2018-12-24T07:10:05.102Z,13.80
2018-12-24T07:12:47.764Z,13.70
2018-12-24T07:15:18.552Z,13.70
2018-12-24T07:17:49.751Z,13.60
2018-12-24T07:20:20.431Z,13.60
2018-12-24T07:22:57.594Z,13.60
2018-12-24T07:25:28.741Z,13.60
2018-12-24T07:27:59.737Z,13.60
2018-12-24T07:30:30.842Z,13.80
2018-12-24T07:33:01.982Z,13.70
2018-12-24T07:35:36.492Z,13.70
2018-12-24T07:38:07.724Z,13.70
2018-12-24T07:40:38.804Z,13.70
2018-12-24T07:43:09.880Z,13.70
2018-12-24T07:45:41.011Z,13.80
2018-12-24T07:48:12.056Z,13.90
2018-12-24T07:50:43.144Z,13.90
2018-12-24T07:53:15.311Z,14.00
2018-12-24T07:55:46.352Z,13.90
2018-12-24T07:58:17.191Z,13.90
2018-12-24T08:00:48.357Z,14.00
2018-12-24T08:03:19.377Z,14.00
2018-12-24T08:05:50.556Z,14.10
2018-12-24T08:08:21.248Z,14.20
2018-12-24T08:11:01.985Z,14.20
2018-12-24T08:13:32.999Z,14.20
2018-12-24T08:16:04.204Z,14.30
2018-12-24T08:18:35.690Z,14.30
2018-12-24T08:21:06.769Z,14.50
2018-12-24T08:23:38.095Z,14.60
2018-12-24T08:26:09.112Z,14.50
2018-12-24T08:28:43.000Z,14.60
2018-12-24T08:31:14.158Z,14.60
2018-12-24T08:33:45.839Z,14.70
2018-12-24T08:36:16.635Z,14.80
2018-12-24T08:38:49.154Z,14.80
2018-12-24T08:41:20.562Z,14.90
2018-12-24T08:43:52.129Z,14.90
2018-12-24T08:46:22.859Z,14.90
2018-12-24T08:48:54.250Z,14.90
2018-12-24T08:51:25.025Z,15.10
2018-12-24T08:53:56.200Z,15.00
2018-12-24T08:56:45.081Z,15.00
2018-12-24T08:59:16.661Z,14.90
2018-12-24T09:01:47.834Z,15.00
2018-12-24T09:04:18.561Z,15.00
2018-12-24T09:06:49.683Z,15.00
2018-12-24T09:09:20.553Z,15.20
2018-12-24T09:11:51.718Z,15.30
2018-12-24T09:14:22.566Z,15.30
2018-12-24T09:16:53.726Z,15.50
2018-12-24T09:19:26.034Z,15.60
2018-12-24T09:21:57.108Z,15.60
2018-12-24T09:24:41.032Z,15.80
2018-12-24T09:27:12.350Z,15.70
2018-12-24T09:29:43.658Z,17.30
2018-12-24T09:32:15.532Z,15.70
2018-12-24T09:34:46.861Z,15.70
2018-12-24T09:37:35.394Z,15.80
2018-12-24T09:40:07.743Z,15.80
2018-12-24T09:42:38.854Z,15.80
2018-12-24T09:45:12.087Z,15.80
2018-12-24T09:47:43.032Z,15.80
2018-12-24T09:50:14.295Z,15.90
2018-12-24T09:52:47.753Z,15.90
2018-12-24T09:55:18.763Z,15.80
2018-12-24T09:57:50.352Z,15.80
2018-12-24T10:00:33.900Z,15.80
2018-12-24T10:03:24.725Z,15.90
2018-12-24T10:06:01.198Z,16.00
2018-12-24T10:08:32.683Z,16.10
2018-12-24T10:11:04.310Z,16.10
2018-12-24T10:13:35.896Z,16.20
2018-12-24T10:16:07.746Z,16.20
2018-12-24T10:18:43.495Z,16.40
2018-12-24T10:21:15.972Z,16.60
2018-12-24T10:23:47.858Z,16.60
2018-12-24T10:26:19.143Z,16.60
2018-12-24T10:28:50.577Z,16.80
2018-12-24T10:31:21.836Z,16.70
2018-12-24T10:33:53.702Z,16.80
2018-12-24T10:36:37.105Z,16.90
2018-12-24T10:39:09.539Z,17.00
2018-12-24T10:41:40.969Z,16.90
2018-12-24T10:44:24.071Z,17.00
2018-12-24T10:46:55.805Z,17.00
2018-12-24T10:49:37.701Z,17.00
2018-12-24T10:52:19.459Z,17.10
2018-12-24T10:54:51.302Z,17.10
2018-12-24T10:57:40.436Z,17.20
2018-12-24T11:00:12.971Z,17.40
2018-12-24T11:02:53.299Z,17.40
2018-12-24T11:05:24.773Z,17.40
2018-12-24T11:07:56.467Z,17.40
2018-12-24T11:10:29.308Z,17.50
2018-12-24T11:13:02.190Z,17.60
2018-12-24T11:15:33.809Z,17.60
2018-12-24T11:18:05.383Z,17.60
2018-12-24T11:20:36.791Z,17.50
2018-12-24T11:23:11.227Z,17.60
2018-12-24T11:25:43.984Z,17.50
2018-12-24T11:30:57.914Z,17.50
2018-12-24T11:33:29.742Z,17.60
2018-12-24T11:36:01.674Z,17.60
2018-12-24T11:38:33.310Z,17.60
2018-12-24T11:41:04.601Z,17.60
2018-12-24T11:43:36.365Z,17.70
2018-12-24T11:46:08.663Z,17.60
2018-12-24T11:48:43.369Z,17.60
2018-12-24T11:51:15.533Z,17.60
2018-12-24T11:53:47.849Z,17.70
2018-12-24T11:56:19.992Z,17.70
2018-12-24T11:58:52.081Z,17.80
2018-12-24T12:01:23.029Z,18.00
2018-12-24T12:03:57.823Z,18.10
2018-12-24T12:06:29.238Z,18.10
2018-12-24T12:09:00.894Z,18.20
2018-12-24T12:11:34.184Z,18.20
2018-12-24T12:14:05.617Z,18.30
2018-12-24T12:16:36.879Z,18.40
2018-12-24T12:19:08.465Z,18.50
2018-12-24T12:21:40.226Z,18.50
2018-12-24T12:24:11.602Z,18.60
2018-12-24T12:26:42.982Z,18.60
2018-12-24T12:29:14.557Z,18.70
2018-12-24T12:31:46.227Z,18.80
2018-12-24T12:34:17.576Z,18.80
2018-12-24T12:36:49.033Z,18.90
2018-12-24T12:39:20.517Z,18.90
2018-12-24T12:42:04.286Z,19.00
2018-12-24T12:44:46.601Z,19.00
2018-12-24T12:47:17.726Z,19.00
2018-12-24T12:49:49.212Z,19.10
2018-12-24T12:52:20.727Z,19.20
2018-12-24T12:54:52.020Z,19.30
2018-12-24T12:57:23.081Z,19.30
2018-12-24T12:59:54.991Z,19.40
2018-12-24T13:02:26.192Z,19.30
2018-12-24T13:05:07.854Z,19.40
2018-12-24T13:07:39.283Z,19.40
2018-12-24T13:10:11.099Z,19.50
2018-12-24T13:12:42.563Z,19.50
2018-12-24T13:15:13.917Z,19.60
2018-12-24T13:17:45.089Z,19.60
2018-12-24T13:20:24.793Z,19.60
2018-12-24T13:22:49.366Z,18.70
2018-12-24T13:25:23.042Z,19.40
2018-12-24T13:27:54.422Z,19.30
2018-12-24T13:30:28.175Z,19.30
2018-12-24T13:32:59.257Z,19.40
2018-12-24T13:35:30.524Z,19.40
2018-12-24T13:38:01.879Z,19.50
2018-12-24T13:40:33.426Z,19.60
2018-12-24T13:43:08.796Z,19.60
2018-12-24T13:46:07.913Z,19.60
2018-12-24T13:48:33.094Z,19.40
2018-12-24T13:51:04.465Z,19.40
2018-12-24T13:53:41.824Z,19.50
2018-12-24T13:56:09.107Z,19.50
2018-12-24T13:58:40.456Z,19.60
2018-12-24T14:01:12.880Z,19.60
2018-12-24T14:03:44.049Z,19.60
2018-12-24T14:06:15.434Z,19.60
2018-12-24T14:08:46.534Z,19.50
2018-12-24T14:11:17.505Z,19.40
2018-12-24T14:13:48.570Z,19.40
2018-12-24T14:16:20.390Z,19.50
2018-12-24T14:18:51.534Z,19.50
2018-12-24T14:21:22.448Z,19.40
2018-12-24T14:23:53.879Z,19.50
2018-12-24T14:26:24.730Z,19.40
2018-12-24T14:28:55.967Z,19.10
2018-12-24T14:31:27.014Z,19.00
2018-12-24T14:33:58.452Z,19.00
2018-12-24T14:36:29.751Z,19.10
2018-12-24T14:39:00.975Z,19.10
2018-12-24T14:41:33.685Z,19.10
2018-12-24T14:44:04.979Z,19.20
2018-12-24T14:46:36.395Z,19.30
2018-12-24T14:49:09.589Z,19.20
2018-12-24T14:51:41.138Z,19.20
2018-12-24T14:54:12.811Z,19.10
2018-12-24T14:56:44.083Z,19.20
2018-12-24T14:59:15.760Z,19.20
2018-12-24T15:01:47.098Z,19.30
2018-12-24T15:04:18.294Z,19.10
2018-12-24T15:06:49.472Z,19.00
2018-12-24T15:09:20.441Z,19.20
2018-12-24T15:11:51.672Z,19.30
2018-12-24T15:14:22.506Z,19.30
2018-12-24T15:16:53.741Z,19.40
2018-12-24T15:19:25.599Z,19.50
2018-12-24T15:21:57.018Z,19.50
2018-12-24T15:24:28.789Z,19.30
2018-12-24T15:27:00.143Z,19.30
2018-12-24T15:29:31.405Z,19.30
2018-12-24T15:32:03.022Z,19.30
2018-12-24T15:34:38.131Z,19.20
2018-12-24T15:37:11.866Z,19.20
2018-12-24T15:39:43.953Z,19.10
2018-12-24T15:42:15.937Z,19.00
2018-12-24T15:44:47.674Z,19.00
2018-12-24T15:47:19.126Z,18.90
2018-12-24T15:49:51.176Z,18.80
2018-12-24T15:52:22.495Z,18.80
2018-12-24T15:54:54.508Z,18.00
2018-12-24T15:57:26.215Z,18.70
2018-12-24T15:59:57.958Z,18.60
2018-12-24T16:02:31.042Z,18.60
2018-12-24T16:05:11.749Z,18.50
2018-12-24T16:07:43.496Z,18.40
2018-12-24T16:10:15.263Z,18.30
2018-12-24T16:12:47.224Z,18.30
2018-12-24T16:15:21.634Z,18.20
2018-12-24T16:17:55.417Z,18.10
2018-12-24T16:20:36.739Z,18.00
2018-12-24T16:23:25.486Z,17.90
2018-12-24T16:25:57.360Z,18.00
2018-12-24T16:28:28.625Z,17.90
2018-12-24T16:31:00.747Z,17.90
2018-12-24T16:33:32.307Z,17.80
2018-12-24T16:36:04.332Z,17.80
2018-12-24T16:38:39.050Z,17.70
2018-12-24T16:41:21.216Z,17.70
2018-12-24T16:43:49.205Z,17.70
2018-12-24T16:46:20.346Z,17.70
2018-12-24T16:48:52.065Z,17.60
2018-12-24T16:51:23.198Z,17.50
2018-12-24T16:53:54.908Z,17.50
2018-12-24T16:56:27.539Z,17.50
2018-12-24T16:58:59.354Z,17.40
2018-12-24T17:01:39.730Z,17.40
2018-12-24T17:04:11.528Z,17.40
2018-12-24T17:06:42.729Z,17.30
2018-12-24T17:09:31.052Z,17.30
2018-12-24T17:12:02.560Z,17.10
2018-12-24T17:14:34.647Z,17.10
2018-12-24T17:17:07.879Z,17.10
2018-12-24T17:19:40.871Z,17.10
2018-12-24T17:22:12.824Z,17.20
2018-12-24T17:24:44.291Z,17.10
2018-12-24T17:27:15.572Z,17.10
2018-12-24T17:29:46.807Z,17.00
2018-12-24T17:32:23.100Z,16.90
2018-12-24T17:34:54.238Z,16.90
2018-12-24T17:37:26.008Z,16.80
2018-12-24T17:39:57.460Z,16.80
2018-12-24T17:42:29.424Z,16.90
2018-12-24T17:45:00.674Z,16.80
2018-12-24T17:47:31.922Z,16.80
2018-12-24T17:50:03.699Z,16.80
2018-12-24T17:52:35.237Z,16.80
2018-12-24T17:55:06.943Z,16.70
2018-12-24T17:57:38.524Z,16.80
2018-12-24T18:00:10.533Z,16.80
2018-12-24T18:02:48.915Z,16.70
2018-12-24T18:05:20.275Z,16.60
2018-12-24T18:08:11.275Z,16.60
2018-12-24T18:10:42.395Z,16.60
2018-12-24T18:13:19.834Z,16.50
2018-12-24T18:15:51.524Z,16.50
2018-12-24T18:18:22.801Z,16.40
2018-12-24T18:20:54.321Z,17.40
2018-12-24T18:23:25.291Z,16.50
2018-12-24T18:25:57.054Z,16.40
2018-12-24T18:28:31.140Z,16.30
2018-12-24T18:31:02.772Z,16.40
2018-12-24T18:33:35.443Z,16.30
2018-12-24T18:36:06.569Z,16.20
2018-12-24T18:38:38.914Z,16.20
2018-12-24T18:41:11.047Z,16.20
2018-12-24T18:43:42.463Z,16.20
2018-12-24T18:46:18.066Z,16.20
2018-12-24T18:48:49.741Z,16.20
2018-12-24T18:51:24.049Z,16.30
2018-12-24T18:53:55.523Z,16.50
2018-12-24T18:56:26.780Z,16.50
2018-12-24T18:58:58.921Z,16.40
2018-12-24T19:01:38.717Z,16.40
2018-12-24T19:04:10.299Z,16.30
2018-12-24T19:06:44.684Z,16.20
2018-12-24T19:09:16.506Z,16.20
2018-12-24T19:11:49.348Z,16.20
2018-12-24T19:14:23.013Z,16.20
2018-12-24T19:16:54.771Z,16.10
2018-12-24T19:19:26.227Z,16.10
2018-12-24T19:22:05.961Z,16.00
2018-12-24T19:24:39.394Z,16.00
2018-12-24T19:27:11.583Z,16.00
2018-12-24T19:29:43.528Z,15.90
2018-12-24T19:32:15.260Z,16.00
2018-12-24T19:34:46.645Z,16.00
2018-12-24T19:37:17.650Z,16.00
2018-12-24T19:39:48.827Z,16.10
2018-12-24T19:42:19.944Z,16.10
2018-12-24T19:44:51.296Z,16.10
2018-12-24T19:47:22.050Z,16.00
2018-12-24T19:49:56.857Z,15.90
2018-12-24T19:52:28.026Z,16.00
2018-12-24T19:54:59.272Z,15.90
2018-12-24T19:57:30.039Z,15.90
2018-12-24T20:00:01.222Z,15.80
2018-12-24T20:02:32.478Z,15.90
2018-12-24T20:05:03.407Z,15.90
2018-12-24T20:07:34.806Z,15.90
2018-12-24T20:10:09.498Z,15.80
2018-12-24T20:12:40.757Z,15.80
2018-12-24T20:15:12.044Z,15.80
2018-12-24T20:17:43.306Z,15.70
2018-12-24T20:20:14.536Z,15.70
2018-12-24T20:22:45.697Z,15.70
2018-12-24T20:25:17.506Z,15.70
2018-12-24T20:27:49.992Z,15.60
2018-12-24T20:30:20.817Z,15.70
2018-12-24T20:32:52.137Z,15.80
2018-12-24T20:35:24.200Z,15.80
2018-12-24T20:37:55.741Z,15.80
2018-12-24T20:40:26.860Z,15.80
2018-12-24T20:42:58.115Z,15.80
2018-12-24T20:45:28.971Z,15.70
2018-12-24T20:48:06.643Z,15.80
2018-12-24T20:50:32.974Z,15.70
2018-12-24T20:53:04.324Z,15.70
2018-12-24T20:55:35.652Z,15.70
2018-12-24T20:58:09.180Z,15.70
2018-12-24T21:00:40.243Z,15.70
2018-12-24T21:03:11.331Z,15.60
2018-12-24T21:05:42.533Z,15.60
2018-12-24T21:08:13.862Z,15.50
2018-12-24T21:10:44.697Z,15.40
2018-12-24T21:13:22.413Z,15.50
2018-12-24T21:15:50.331Z,15.50
2018-12-24T21:18:21.199Z,15.40
2018-12-24T21:20:52.444Z,15.30
2018-12-24T21:23:24.403Z,15.30
2018-12-24T21:25:55.820Z,15.20
2018-12-24T21:28:26.913Z,15.20
2018-12-24T21:30:58.168Z,15.20
2018-12-24T21:33:28.971Z,15.20
2018-12-24T21:36:00.989Z,15.20
2018-12-24T21:38:32.398Z,15.20
2018-12-24T21:41:03.569Z,15.20
2018-12-24T21:43:34.754Z,15.30
2018-12-24T21:46:05.917Z,15.40
2018-12-24T21:48:37.436Z,15.40
2018-12-24T21:51:08.410Z,15.40
2018-12-24T21:53:46.992Z,15.30
2018-12-24T21:56:18.341Z,15.30
2018-12-24T21:58:49.590Z,15.30
2018-12-24T22:01:26.735Z,15.40
2018-12-24T22:03:58.122Z,15.40
2018-12-24T22:06:29.092Z,15.30
2018-12-24T22:09:00.643Z,15.30
2018-12-24T22:11:47.361Z,15.30
2018-12-24T22:14:19.676Z,15.30
2018-12-24T22:16:50.804Z,15.30
2018-12-24T22:19:21.537Z,15.20
2018-12-24T22:21:53.811Z,15.20
2018-12-24T22:24:24.830Z,15.10
2018-12-24T22:26:56.155Z,15.00
2018-12-24T22:29:50.747Z,14.90
2018-12-24T22:32:22.019Z,14.80
2018-12-24T22:34:54.372Z,14.90
2018-12-24T22:37:25.364Z,14.90
2018-12-24T22:39:56.668Z,14.90
2018-12-24T22:42:27.781Z,14.90
2018-12-24T22:44:59.821Z,15.00
2018-12-24T22:47:31.130Z,14.90
2018-12-24T22:50:02.588Z,14.90
2018-12-24T22:52:33.811Z,14.90
2018-12-24T22:55:04.950Z,14.90
2018-12-24T22:57:36.284Z,14.90
2018-12-24T23:00:09.528Z,14.90
2018-12-24T23:02:42.529Z,14.90
2018-12-24T23:05:13.810Z,14.80
2018-12-24T23:07:45.015Z,14.80
2018-12-24T23:10:16.133Z,14.80
2018-12-24T23:12:47.460Z,14.90
2018-12-24T23:15:18.440Z,14.90
2018-12-24T23:17:49.614Z,14.80
2018-12-24T23:20:20.712Z,14.80
2018-12-24T23:22:51.799Z,14.80
2018-12-24T23:25:24.485Z,14.80
2018-12-24T23:27:55.615Z,14.70
2018-12-24T23:30:33.979Z,14.70
2018-12-24T23:33:05.143Z,15.90
2018-12-24T23:35:36.287Z,14.80
2018-12-24T23:38:10.584Z,14.90
2018-12-24T23:40:41.729Z,14.80
2018-12-24T23:43:12.924Z,14.70
2018-12-24T23:45:44.403Z,14.80
2018-12-24T23:48:20.574Z,14.80
2018-12-24T23:50:51.976Z,14.70
2018-12-24T23:53:22.728Z,14.80
2018-12-24T23:55:57.321Z,14.90
2018-12-24T23:58:28.043Z,14.80
